Time;durP1;ratioP1;P1;durP2;ratioP2;P2;SDS_P1;SDS_P2;PMS_P1;PMS_P2;Temp;Humidity;BMP_temperature;BMP_pressure;BME280_temperature;BME280_humidity;BME280_pressure;Samples;Min_cycle;Max_cycle;Signal;HPM_P1;HPM_P2
2021/08/12 04:41:12;;;;;;;12.98;7.35;;;;;;;21.00;67.00;98886.11;1670202;81;21415;-60
2021/08/12 04:43:40;;;;;;;13.28;7.47;;;;;;;21.31;66.79;98896.16;1664733;84;21518;-62
2021/08/12 04:46:08;;;;;;;15.13;7.40;;;;;;;21.84;65.33;98893.11;1672138;85;21159;-61
2021/08/12 04:48:37;;;;;;;12.05;6.70;;;;;;;22.20;62.69;98899.03;1695042;84;21551;-60
2021/08/12 04:51:05;;;;;;;15.28;7.62;;;;;;;22.35;62.02;98899.41;1703576;84;21100;-59
2021/08/12 04:53:33;;;;;;;16.37;7.80;;;;;;;22.45;61.08;98890.46;1703728;84;21025;-60
2021/08/12 04:56:03;;;;;;;14.98;7.95;;;;;;;22.40;60.72;98893.99;1680196;84;21001;-60
2021/08/12 04:58:33;;;;;;;16.27;7.53;;;;;;;22.51;59.80;98888.78;1704160;84;21023;-60
2021/08/12 05:01:01;;;;;;;17.37;7.00;;;;;;;22.46;60.25;98892.05;1672810;84;21083;-53
2021/08/12 05:03:29;;;;;;;56.95;10.72;;;;;;;22.69;61.35;98891.27;1641504;84;21439;-49
2021/08/12 05:06:05;;;;;;;53.35;10.20;;;;;;;23.35;58.92;98887.53;1666943;84;21086;-52
2021/08/12 05:08:33;;;;;;;32.35;7.95;;;;;;;23.95;56.44;98887.70;1664782;84;21008;-52
2021/08/12 05:11:01;;;;;;;31.23;7.15;;;;;;;24.32;54.38;98893.55;1665810;84;21023;-56
2021/08/12 05:13:31;;;;;;;19.70;7.20;;;;;;;24.47;53.26;98904.61;1666512;84;21101;-58
2021/08/12 05:15:59;;;;;;;19.90;7.05;;;;;;;24.54;52.94;98903.11;1666480;84;22259;-53
2021/08/12 05:18:29;;;;;;;17.02;6.35;;;;;;;24.60;52.99;98907.33;1667754;84;20995;-58
2021/08/12 05:20:59;;;;;;;15.98;6.70;;;;;;;24.79;52.25;98907.78;1669879;84;21601;-52
2021/08/12 05:23:29;;;;;;;15.88;6.87;;;;;;;24.80;50.20;98915.56;1680747;84;20968;-53
2021/08/12 05:25:59;;;;;;;15.83;6.35;;;;;;;24.51;51.38;98894.29;1653128;84;21505;-57
2021/08/12 05:28:28;;;;;;;11.63;5.97;;;;;;;24.47;51.10;98915.38;1600216;84;21003;-52
2021/08/12 05:30:57;;;;;;;16.75;6.03;;;;;;;24.41;51.01;98910.63;1666643;84;21031;-51
2021/08/12 05:33:28;;;;;;;16.57;5.87;;;;;;;24.38;52.07;98915.84;1662115;86;21016;-52
2021/08/12 05:35:57;;;;;;;11.50;5.85;;;;;;;24.57;51.05;98898.48;1647492;84;21020;-62
2021/08/12 05:38:26;;;;;;;13.45;5.78;;;;;;;24.62;50.28;98905.13;1638520;85;21127;-63
2021/08/12 05:40:58;;;;;;;11.12;5.72;;;;;;;24.68;50.31;98904.48;1651856;84;21099;-59
2021/08/12 05:43:28;;;;;;;13.15;5.85;;;;;;;24.77;48.51;98917.50;1632259;86;21460;-51
2021/08/12 05:45:59;;;;;;;14.25;5.58;;;;;;;24.61;48.63;98927.79;1631948;88;21079;-58
2021/08/12 05:48:27;;;;;;;9.05;5.15;;;;;;;24.45;49.69;98917.59;1632524;88;21550;-55
2021/08/12 05:50:56;;;;;;;12.30;5.75;;;;;;;24.58;48.33;98927.58;1627207;86;21067;-53
2021/08/12 05:53:29;;;;;;;10.43;5.50;;;;;;;24.47;48.89;98912.69;1627927;86;21544;-52
2021/08/12 05:55:56;;;;;;;10.25;5.40;;;;;;;24.48;49.06;98923.71;1655425;87;21128;-54
2021/08/12 05:58:24;;;;;;;9.80;5.45;;;;;;;24.37;49.43;98928.48;1577449;89;21075;-52
2021/08/12 06:00:53;;;;;;;12.40;5.50;;;;;;;24.41;49.73;98935.43;1581806;88;21159;-50
2021/08/12 06:03:21;;;;;;;11.85;5.75;;;;;;;24.62;48.13;98940.16;1634773;86;20998;-51
2021/08/12 06:05:56;;;;;;;10.95;5.60;;;;;;;24.57;48.81;98946.98;1634962;86;21895;-53
2021/08/12 06:08:23;;;;;;;10.35;4.95;;;;;;;24.81;48.52;98942.77;1628214;87;21083;-48
2021/08/12 06:10:53;;;;;;;13.48;5.47;;;;;;;25.10;47.66;98947.08;1632579;88;21617;-50
2021/08/12 06:13:21;;;;;;;10.98;5.30;;;;;;;25.19;47.33;98949.34;1632958;88;21111;-50
2021/08/12 06:15:50;;;;;;;10.23;5.67;;;;;;;25.31;46.62;98954.22;1635969;86;21121;-58
2021/08/12 06:18:19;;;;;;;9.60;5.40;;;;;;;25.07;45.99;98957.14;1647473;87;21590;-56
2021/08/12 06:20:48;;;;;;;9.28;4.80;;;;;;;24.71;46.27;98943.50;1600280;89;21081;-55
2021/08/12 06:23:17;;;;;;;10.20;5.12;;;;;;;24.39;46.56;98949.75;1602593;89;21616;-51
2021/08/12 06:25:44;;;;;;;9.50;5.35;;;;;;;24.27;47.10;98960.97;1600231;89;21140;-59
2021/08/12 06:28:12;;;;;;;8.45;5.12;;;;;;;24.00;47.99;98959.77;1610169;87;21092;-54
2021/08/12 06:30:44;;;;;;;10.58;5.17;;;;;;;23.74;48.80;98959.89;1651680;86;21137;-54
2021/08/12 06:33:13;;;;;;;9.48;5.42;;;;;;;23.65;49.40;98959.76;1656332;87;21053;-54
2021/08/12 06:35:42;;;;;;;8.18;4.95;;;;;;;23.57;48.54;98978.67;1655869;86;21584;-59
2021/08/12 06:38:10;;;;;;;10.85;5.53;;;;;;;23.29;49.93;98972.86;1620779;86;21095;-60
2021/08/12 06:40:38;;;;;;;10.60;5.30;;;;;;;23.36;49.95;98972.50;1633493;88;21609;-61
2021/08/12 06:43:06;;;;;;;9.28;5.17;;;;;;;23.49;50.11;98971.23;1660195;86;21610;-60
2021/08/12 06:45:35;;;;;;;8.15;5.03;;;;;;;23.81;49.57;98969.77;1627139;87;21044;-58
2021/08/12 06:48:07;;;;;;;12.82;5.78;;;;;;;24.02;48.14;98971.03;1647637;85;21514;-62
2021/08/12 06:50:36;;;;;;;13.50;5.10;;;;;;;24.16;48.56;98977.84;1646558;86;21211;-60
2021/08/12 06:53:05;;;;;;;8.47;5.00;;;;;;;24.28;48.86;98967.41;1617268;86;21077;-60
2021/08/12 06:55:34;;;;;;;13.83;5.30;;;;;;;24.45;46.70;98969.58;1641680;87;21805;-61
2021/08/12 06:58:03;;;;;;;14.00;5.25;;;;;;;24.34;47.90;98966.77;1641758;87;21576;-60
2021/08/12 07:00:31;;;;;;;8.58;5.05;;;;;;;24.25;48.25;98972.02;1641581;87;21065;-59
2021/08/12 07:02:59;;;;;;;11.50;5.00;;;;;;;24.40;47.52;98970.20;1651568;87;21039;-61
2021/08/12 07:05:27;;;;;;;12.53;4.95;;;;;;;24.39;47.78;98965.92;1650906;86;21111;-60
2021/08/12 07:07:55;;;;;;;15.08;5.30;;;;;;;24.27;48.92;98974.44;1670809;86;21073;-62
2021/08/12 07:10:24;;;;;;;10.72;5.15;;;;;;;24.32;47.71;98974.36;1670710;86;21085;-61
2021/08/12 07:12:54;;;;;;;10.35;5.28;;;;;;;24.28;47.39;98978.17;1646615;85;21084;-60
2021/08/12 07:15:24;;;;;;;10.40;5.00;;;;;;;23.99;48.01;98978.91;1632888;87;21040;-61
2021/08/12 07:17:54;;;;;;;17.17;6.05;;;;;;;23.51;49.71;98972.28;1652568;85;21085;-59
2021/08/12 07:20:23;;;;;;;22.43;8.73;;;;;;;23.30;50.44;98967.73;1649832;85;21098;-60
2021/08/12 07:22:55;;;;;;;13.35;5.45;;;;;;;23.42;50.99;98976.73;1631471;87;21000;-62
2021/08/12 07:25:30;;;;;;;12.73;5.87;;;;;;;23.48;50.15;98972.33;1661190;86;21037;-60
2021/08/12 07:27:58;;;;;;;27.48;9.13;;;;;;;23.24;50.56;98979.64;1669458;86;21036;-63
2021/08/12 07:30:26;;;;;;;12.18;6.15;;;;;;;22.84;52.12;98976.84;1669900;86;21025;-62
2021/08/12 07:32:54;;;;;;;8.28;4.60;;;;;;;22.72;51.80;98996.84;1658616;86;20992;-64
2021/08/12 07:35:24;;;;;;;10.43;5.33;;;;;;;22.36;51.47;98988.83;1649014;86;21150;-61
2021/08/12 07:37:54;;;;;;;11.50;5.40;;;;;;;21.90;54.37;98991.82;1649280;87;20985;-59
2021/08/12 07:40:22;;;;;;;14.68;6.60;;;;;;;21.64;56.81;98983.14;1660433;85;21127;-63
2021/08/12 07:42:50;;;;;;;11.28;5.47;;;;;;;21.65;56.98;98990.10;1650651;85;21062;-60
2021/08/12 07:45:18;;;;;;;10.18;4.95;;;;;;;21.74;57.06;98983.09;1646264;85;21035;-62
2021/08/12 07:47:47;;;;;;;13.88;6.20;;;;;;;21.88;56.25;98991.31;1649396;85;21038;-62
2021/08/12 07:50:16;;;;;;;14.50;6.28;;;;;;;22.02;56.45;98996.30;1643345;87;21062;-59
2021/08/12 07:52:44;;;;;;;14.00;6.33;;;;;;;22.17;55.59;98995.43;1642774;87;21073;-62
2021/08/12 07:55:13;;;;;;;18.50;9.10;;;;;;;22.16;55.64;99002.69;1651658;85;21631;-62
2021/08/12 07:57:43;;;;;;;11.20;5.10;;;;;;;22.21;55.90;98997.83;1655334;86;21069;-61
2021/08/12 08:00:14;;;;;;;50.17;35.43;;;;;;;22.31;55.82;99007.15;1655395;87;21536;-58
2021/08/12 08:02:48;;;;;;;16.35;7.03;;;;;;;22.47;55.81;99005.91;1655551;86;21065;-60
2021/08/12 08:05:24;;;;;;;12.50;5.37;;;;;;;22.50;55.03;98999.99;1617430;89;21046;-60
2021/08/12 08:07:54;;;;;;;10.82;4.92;;;;;;;22.29;54.83;99005.81;1633138;86;21120;-62
2021/08/12 08:10:24;;;;;;;11.63;5.25;;;;;;;21.97;55.61;98999.84;1672670;85;21105;-61
2021/08/12 08:12:52;;;;;;;9.88;5.15;;;;;;;21.93;56.59;99000.67;1630875;87;21554;-61
2021/08/12 08:15:22;;;;;;;11.80;4.85;;;;;;;22.01;56.16;99010.80;1610605;88;21064;-62
2021/08/12 08:17:50;;;;;;;9.80;5.10;;;;;;;22.19;55.88;99004.00;1607820;89;21102;-60
2021/08/12 08:20:19;;;;;;;12.23;5.42;;;;;;;22.36;54.96;99008.97;1604465;88;21079;-59
2021/08/12 08:22:52;;;;;;;10.05;4.97;;;;;;;22.46;54.94;99000.29;1603364;89;21084;-62
2021/08/12 08:25:22;;;;;;;9.70;4.80;;;;;;;22.57;54.76;98994.29;1599322;89;21104;-62
2021/08/12 08:27:50;;;;;;;14.75;5.50;;;;;;;22.66;54.53;98997.18;1602936;89;21087;-63
2021/08/12 08:30:19;;;;;;;9.90;4.80;;;;;;;22.80;53.86;98991.38;1603664;89;21029;-61
2021/08/12 08:32:47;;;;;;;14.68;4.92;;;;;;;22.90;53.25;98989.97;1625192;88;21031;-59
2021/08/12 08:35:15;;;;;;;13.18;6.62;;;;;;;22.98;52.78;98991.22;1602155;88;21051;-59
2021/08/12 08:37:44;;;;;;;17.67;8.08;;;;;;;22.98;52.13;98972.41;1576083;91;21050;-57
2021/08/12 08:40:13;;;;;;;11.05;5.80;;;;;;;22.84;52.17;98995.11;1573967;91;21169;-61
2021/08/12 08:42:41;;;;;;;10.68;5.00;;;;;;;22.67;53.27;99014.34;1577644;88;21286;-59
2021/08/12 08:45:10;;;;;;;8.28;4.47;;;;;;;22.64;54.09;98997.98;1600938;88;21099;-61
2021/08/12 08:47:40;;;;;;;12.50;5.62;;;;;;;22.78;54.46;98992.22;1611196;88;21507;-62
2021/08/12 08:50:14;;;;;;;10.00;5.22;;;;;;;22.98;53.35;98986.64;1620941;88;21570;-65
2021/08/12 08:52:46;;;;;;;10.93;5.53;;;;;;;22.84;54.08;98987.05;1601064;88;21170;-66
2021/08/12 08:55:23;;;;;;;13.45;5.45;;;;;;;22.90;54.23;98996.69;1598165;88;21050;-62
2021/08/12 08:57:54;;;;;;;11.60;5.37;;;;;;;23.07;53.39;98992.20;1583461;88;21070;-63
2021/08/12 09:00:24;;;;;;;10.03;4.50;;;;;;;23.31;52.84;98993.53;1591825;89;21102;-62
2021/08/12 09:02:53;;;;;;;15.78;5.15;;;;;;;23.53;51.71;99002.41;1605436;89;21151;-63
2021/08/12 09:05:23;;;;;;;10.68;4.92;;;;;;;23.74;50.57;98981.41;1594753;90;21106;-65
2021/08/12 09:07:52;;;;;;;7.33;4.70;;;;;;;23.93;50.44;99001.63;1593184;89;21059;-66
2021/08/12 09:10:24;;;;;;;10.25;4.92;;;;;;;24.11;49.88;98994.08;1565782;89;21047;-64
2021/08/12 09:12:52;;;;;;;9.05;4.35;;;;;;;24.27;48.34;98990.59;1604716;89;21037;-65
2021/08/12 09:15:21;;;;;;;9.58;4.80;;;;;;;24.30;47.60;99001.56;1577921;90;21199;-66
2021/08/12 09:17:52;;;;;;;8.70;4.62;;;;;;;24.30;47.14;98997.52;1595582;90;21129;-68
2021/08/12 09:20:24;;;;;;;12.07;4.70;;;;;;;24.26;48.29;98989.00;1603087;89;21597;-68
2021/08/12 09:23:00;;;;;;;11.93;5.03;;;;;;;24.33;47.41;98990.77;1616184;88;21039;-70
2021/08/12 09:25:36;;;;;;;9.15;4.75;;;;;;;24.31;46.95;98990.23;1604179;88;21121;-69
2021/08/12 09:28:29;;;;;;;8.95;4.45;;;;;;;24.35;46.83;98993.98;1595311;90;21131;-68
2021/08/12 09:31:05;;;;;;;7.62;4.15;;;;;;;24.14;44.96;99000.20;1594946;90;21125;-65
2021/08/12 09:33:45;;;;;;;7.45;4.35;;;;;;;23.80;47.20;99000.47;1583181;89;21054;-65
2021/08/12 09:36:27;;;;;;;12.03;4.90;;;;;;;23.69;47.07;98989.04;1589347;88;21071;-67
2021/08/12 09:39:19;;;;;;;7.95;4.22;;;;;;;23.79;47.32;98992.91;1595215;90;21025;-66
2021/08/12 09:41:53;;;;;;;10.23;5.40;;;;;;;23.98;46.80;99003.70;1594893;90;21179;-68
2021/08/12 09:44:50;;;;;;;12.55;5.20;;;;;;;23.99;45.88;98992.38;1592929;88;21085;-74
2021/08/12 09:47:20;;;;;;;12.70;6.45;;;;;;;23.64;45.94;98983.73;1599897;88;21105;-68
2021/08/12 09:49:54;;;;;;;14.73;6.67;;;;;;;23.32;47.14;98997.27;1592164;90;22233;-61
2021/08/12 09:52:34;;;;;;;14.83;7.37;;;;;;;23.48;47.37;99002.47;1590017;90;21101;-69
2021/08/12 09:55:20;;;;;;;14.33;7.65;;;;;;;23.60;47.88;98989.39;1575032;88;21146;-67
2021/08/12 09:57:52;;;;;;;17.35;8.33;;;;;;;23.72;48.61;98994.37;1616434;88;21085;-61
2021/08/12 10:00:30;;;;;;;13.38;7.12;;;;;;;23.93;48.81;98998.38;1578662;91;21058;-70
2021/08/12 10:02:59;;;;;;;16.05;7.87;;;;;;;24.10;47.61;98980.36;1588860;89;21571;-66
2021/08/12 10:05:30;;;;;;;19.57;9.18;;;;;;;23.96;47.30;98993.74;1595886;89;21609;-69
2021/08/12 10:08:00;;;;;;;19.05;9.25;;;;;;;23.77;47.96;98992.96;1606640;89;21047;-69
2021/08/12 10:10:29;;;;;;;18.25;9.00;;;;;;;23.78;48.39;98997.25;1597408;87;21035;-65
2021/08/12 10:13:00;;;;;;;17.90;8.90;;;;;;;23.78;47.78;98995.91;1601793;88;21570;-62
2021/08/12 10:15:33;;;;;;;;;;;;;;;23.69;47.57;99003.05;1602517;88;21078;-67
2021/08/12 10:18:02;;;;;;;16.27;8.20;;;;;;;23.65;48.24;98990.70;1608883;87;20110;-67
2021/08/12 10:20:33;;;;;;;18.02;7.60;;;;;;;23.90;49.24;98990.08;1612511;87;21087;-67
2021/08/12 10:23:05;;;;;;;17.07;8.28;;;;;;;24.27;47.91;98990.59;1565419;89;21094;-70
2021/08/12 10:25:36;;;;;;;17.87;9.05;;;;;;;24.47;45.64;98980.05;1607556;87;21050;-66
2021/08/12 10:28:08;;;;;;;16.95;7.78;;;;;;;24.54;46.01;98987.19;1616428;87;21076;-66
2021/08/12 10:30:35;;;;;;;11.48;6.35;;;;;;;24.62;46.38;98989.22;1606453;88;21011;-65
2021/08/12 10:33:07;;;;;;;11.20;5.70;;;;;;;24.84;45.80;98985.31;1608580;87;21055;-67
2021/08/12 10:35:36;;;;;;;12.90;4.78;;;;;;;25.03;43.73;98993.86;1608610;87;21044;-68
2021/08/12 10:38:04;;;;;;;10.10;4.47;;;;;;;24.79;44.09;98988.66;1606560;88;21100;-63
2021/08/12 10:40:36;;;;;;;8.73;4.67;;;;;;;24.73;44.43;98987.94;1606380;89;21123;-63
2021/08/12 10:43:06;;;;;;;9.55;4.83;;;;;;;24.74;44.71;98990.89;1605264;87;21051;-64
2021/08/12 10:45:35;;;;;;;7.17;4.10;;;;;;;24.75;44.54;98985.74;1610300;88;22235;-63
2021/08/12 10:48:07;;;;;;;10.03;4.50;;;;;;;24.82;43.85;98988.84;1625612;88;21421;-66
2021/08/12 10:50:41;;;;;;;8.80;4.37;;;;;;;24.82;43.88;98981.30;1626018;87;21011;-64
2021/08/12 10:53:13;;;;;;;6.60;4.00;;;;;;;24.85;43.58;98991.50;1608201;88;21086;-66
2021/08/12 10:56:04;;;;;;;11.00;4.25;;;;;;;24.87;42.54;98983.91;1626306;87;21074;-64
2021/08/12 10:58:36;;;;;;;7.87;3.67;;;;;;;24.79;42.96;98990.00;1625995;88;21113;-64
2021/08/12 11:01:11;;;;;;;9.23;3.55;;;;;;;24.69;43.10;98981.54;1630118;87;21588;-69
2021/08/12 11:03:45;;;;;;;7.17;3.70;;;;;;;24.67;42.92;98991.03;1587930;88;21098;-62
2021/08/12 11:06:21;;;;;;;6.70;3.60;;;;;;;24.79;42.75;98995.39;1604366;88;21557;-68
2021/08/12 11:08:59;;;;;;;8.08;3.35;;;;;;;24.87;41.74;98994.14;1596522;90;21087;-64
2021/08/12 11:11:32;;;;;;;8.23;4.00;;;;;;;24.92;42.69;98981.12;1568594;91;21130;-63
2021/08/12 11:14:13;;;;;;;11.12;3.58;;;;;;;24.90;42.50;98986.02;1568407;91;21122;-62
2021/08/12 11:16:48;;;;;;;;;;;;;;;24.88;42.11;98980.11;1570565;91;21563;-63
2021/08/12 11:19:32;;;;;;;6.40;3.70;;;;;;;24.65;43.23;98989.95;1568466;91;20441;-63
2021/08/12 11:21:59;;;;;;;7.80;3.75;;;;;;;24.61;44.08;98987.08;1590769;88;21079;-64
2021/08/12 11:24:31;;;;;;;6.15;3.47;;;;;;;24.78;43.97;98996.49;1625421;88;21110;-62
2021/08/12 11:27:03;;;;;;;10.75;3.65;;;;;;;24.90;42.36;98990.06;1623113;87;21145;-63
2021/08/12 11:29:34;;;;;;;8.90;3.17;;;;;;;24.86;40.85;99010.63;1615450;88;21610;-62
2021/08/12 11:32:13;;;;;;;9.53;3.92;;;;;;;24.56;41.06;98999.84;1597298;88;21041;-62
2021/08/12 11:34:56;;;;;;;6.12;3.45;;;;;;;24.45;42.13;98997.06;1606121;87;21502;-65
2021/08/12 11:37:28;;;;;;;7.22;3.35;;;;;;;24.48;43.03;98995.11;1604656;89;21074;-63
2021/08/12 11:40:10;;;;;;;7.42;3.80;;;;;;;24.57;42.12;99009.52;1603505;89;21036;-64
2021/08/12 11:42:44;;;;;;;8.60;3.85;;;;;;;24.48;42.98;98978.39;1599887;88;21093;-66
2021/08/12 11:45:21;;;;;;;8.00;3.67;;;;;;;24.40;43.85;99006.03;1613076;88;21033;-61
2021/08/12 11:47:57;;;;;;;9.03;3.60;;;;;;;24.43;42.97;98994.67;1601752;87;21085;-67
2021/08/12 11:50:29;;;;;;;9.80;3.87;;;;;;;24.56;43.04;99007.38;1632533;87;21089;-64
2021/08/12 11:52:58;;;;;;;10.48;3.67;;;;;;;24.73;42.61;98996.58;1641971;87;21093;-65
2021/08/12 11:55:28;;;;;;;10.10;3.55;;;;;;;24.90;43.09;99001.64;1642164;87;21042;-64
2021/08/12 11:57:57;;;;;;;6.20;3.55;;;;;;;25.07;42.88;99000.29;1639155;87;21058;-65
2021/08/12 12:00:33;;;;;;;10.35;3.60;;;;;;;25.17;41.32;99000.06;1631299;88;21525;-65
2021/08/12 12:03:05;;;;;;;6.25;3.55;;;;;;;25.07;41.33;98979.52;1573031;90;21121;-64
2021/08/12 12:05:41;;;;;;;7.97;3.35;;;;;;;25.09;42.00;98998.08;1590495;90;21090;-69
2021/08/12 12:08:09;;;;;;;9.10;3.30;;;;;;;25.23;42.24;99000.22;1603289;88;21082;-65
2021/08/12 12:10:40;;;;;;;7.85;3.22;;;;;;;25.36;41.71;98993.23;1605485;88;21529;-62
2021/08/12 12:13:12;;;;;;;;;;;;;;;25.30;39.22;98988.49;1606201;88;21031;-62
2021/08/12 12:15:55;;;;;;;7.97;3.50;;;;;;;25.12;39.60;98986.16;1582742;88;20121;-63
2021/08/12 12:18:40;;;;;;;7.67;3.72;;;;;;;24.91;39.34;98997.05;1605630;89;21082;-65
2021/08/12 12:21:17;;;;;;;10.50;4.03;;;;;;;24.67;40.35;98995.08;1603911;89;21139;-61
2021/08/12 12:23:48;;;;;;;6.53;3.20;;;;;;;24.66;40.88;99010.45;1610053;88;21074;-62
2021/08/12 12:26:20;;;;;;;12.50;4.03;;;;;;;24.59;41.65;99016.20;1578969;88;21577;-61
2021/08/12 12:28:50;;;;;;;9.25;3.50;;;;;;;24.57;42.62;99010.31;1621126;88;21079;-65
2021/08/12 12:31:19;;;;;;;10.93;3.45;;;;;;;24.64;41.62;98999.95;1607251;88;21063;-64
2021/08/12 12:34:01;;;;;;;7.05;3.20;;;;;;;24.64;42.33;98994.55;1609711;88;21668;-68
2021/08/12 12:36:31;;;;;;;;;;;;;;;24.81;41.47;98993.98;1618836;88;21114;-65
2021/08/12 12:39:01;;;;;;;5.80;3.37;;;;;;;24.93;41.63;99011.57;1607320;88;20663;-65
2021/08/12 12:41:30;;;;;;;7.80;3.60;;;;;;;25.05;41.10;99003.27;1605590;89;21090;-63
2021/08/12 12:44:14;;;;;;;10.55;3.27;;;;;;;25.23;40.59;99013.70;1616392;87;21561;-62
2021/08/12 12:46:43;;;;;;;5.20;3.00;;;;;;;25.30;39.68;99011.98;1619774;87;21097;-66
2021/08/12 12:49:29;;;;;;;10.98;3.33;;;;;;;25.24;38.35;99020.72;1622367;87;21045;-64
2021/08/12 12:52:07;;;;;;;7.58;3.62;;;;;;;25.04;37.26;98996.80;1624172;87;21608;-66
2021/08/12 12:54:37;;;;;;;9.70;3.30;;;;;;;24.87;39.63;99020.30;1621521;87;21608;-65
2021/08/12 12:57:07;;;;;;;8.50;3.65;;;;;;;24.86;39.89;99003.33;1580851;89;21073;-63
2021/08/12 12:59:34;;;;;;;11.22;4.50;;;;;;;24.52;39.23;99019.03;1618778;87;21539;-66
2021/08/12 13:02:04;;;;;;;6.25;3.60;;;;;;;24.05;40.67;99028.91;1618240;89;21587;-65
2021/08/12 13:04:32;;;;;;;6.30;3.60;;;;;;;23.64;41.48;99030.81;1618811;87;21049;-67
2021/08/12 13:07:00;;;;;;;8.83;3.42;;;;;;;23.35;42.73;99015.28;1618530;89;21160;-64
2021/08/12 13:09:39;;;;;;;9.80;3.80;;;;;;;23.24;43.79;99026.70;1593600;89;21208;-66
2021/08/12 13:12:32;;;;;;;6.28;3.33;;;;;;;23.27;43.88;99011.32;1620265;87;21610;-66
2021/08/12 13:15:13;;;;;;;7.90;3.50;;;;;;;23.35;42.84;99013.94;1613582;89;21129;-66
2021/08/12 13:17:43;;;;;;;7.83;3.40;;;;;;;23.42;43.36;99015.73;1614355;89;21125;-65
2021/08/12 13:20:16;;;;;;;8.70;3.12;;;;;;;23.66;43.88;99011.14;1617968;89;21062;-63
2021/08/12 13:22:47;;;;;;;10.10;3.65;;;;;;;23.97;43.72;98991.33;1618815;87;21699;-62
2021/08/12 13:25:20;;;;;;;13.20;4.10;;;;;;;24.28;43.17;98996.23;1609950;88;21082;-64
2021/08/12 13:27:50;;;;;;;8.98;3.50;;;;;;;24.46;42.55;99016.97;1622881;88;21075;-67
2021/08/12 13:30:29;;;;;;;8.03;3.60;;;;;;;24.60;43.12;99003.00;1623992;87;21144;-65
2021/08/12 13:32:57;;;;;;;10.25;3.87;;;;;;;24.63;42.28;99013.72;1624521;88;21093;-67
2021/08/12 13:35:25;;;;;;;6.67;3.70;;;;;;;24.49;41.67;99011.55;1630989;87;21104;-67
2021/08/12 13:37:54;;;;;;;5.97;3.33;;;;;;;24.32;41.19;99019.59;1669712;85;21088;-63
2021/08/12 13:40:23;;;;;;;9.13;4.25;;;;;;;24.20;41.35;99009.83;1668558;86;21100;-65
2021/08/12 13:42:51;;;;;;;7.47;3.62;;;;;;;24.15;41.57;99015.84;1666093;86;21591;-66
2021/08/12 13:45:21;;;;;;;9.88;3.62;;;;;;;24.20;41.79;99019.25;1603206;87;21026;-65
2021/08/12 13:47:48;;;;;;;12.07;3.87;;;;;;;24.17;41.56;99019.03;1595981;88;21580;-68
2021/08/12 13:50:16;;;;;;;7.55;4.15;;;;;;;24.12;41.79;99022.59;1596109;90;21114;-65
2021/08/12 13:52:46;;;;;;;6.10;3.70;;;;;;;24.18;41.14;99007.16;1595872;90;21635;-66
2021/08/12 13:55:14;;;;;;;7.42;3.35;;;;;;;24.22;41.54;99015.71;1613652;86;21075;-64
2021/08/12 13:57:43;;;;;;;7.22;3.52;;;;;;;24.02;40.40;99017.36;1629844;88;21478;-66
2021/08/12 14:00:12;;;;;;;9.68;3.98;;;;;;;23.70;41.58;99021.58;1630630;88;20972;-63
